Список аэропортов
Фактическая погода:

25 июня, 11:30
Температура: +24°C (+24.0*)
Ветер: юго-западный 8 м/с
Давление: *760 мм
Без существ. явл.
Время (МСК)Темп. СВетерВлажностьДавлениеОблачностьОсадки
09:00+19ЮЗ, 4 м/с58%1013 гПаясно
10:00+22ЮЗ, 5 м/с48%1013 гПамалооблачно
11:00+24ЮЗ, 6 м/с42%1012 гПаоблачно
12:00+24З, 6 м/с43%1012 гПас прояснениями
13:00+24З, 6 м/с44%1012 гПаоблачно
14:00+25ЮЗ, 7 м/с42%1011 гПаоблачно
15:00+25ЮЗ, 8 м/с40%1011 гПаоблачно
16:00+26З, 8 м/с37%1011 гПаоблачно
17:00+25З, 7 м/с40%1010 гПаоблачно
18:00+25З, 7 м/с38%1010 гПаоблачно
19:00+25З, 6 м/с39%1010 гПаоблачно
20:00+24З, 6 м/с41%1010 гПас прояснениями
21:00+24З, 5 м/с43%1010 гПас прояснениями
22:00+22З, 3 м/с48%1010 гПас прояснениями
23:00+22З, 3 м/с50%1011 гПаоблачно
26 июня
00:00+22З, 4 м/с50%1011 гПаоблачно
01:00+21З, 4 м/с53%1011 гПаоблачно
02:00+20З, 3 м/с60%1011 гПас прояснениями
03:00+20З, 5 м/с60%1011 гПаоблачно
04:00+19З, 5 м/с64%1011 гПас прояснениями
05:00+18З, 4 м/с70%1012 гПаоблачно
06:00+18СЗ, 3 м/с71%1012 гПаоблачно
07:00+17З, 2 м/с74%1012 гПамалооблачно
08:00+18ЮЗ, 3 м/с72%1012 гПас прояснениямисл. дождь
09:00+18ЮЗ, 3 м/с69%1012 гПаоблачно
10:00+18ЮЗ, 4 м/с69%1012 гПаоблачносл. дождь
11:00+20ЮЗ, 5 м/с61%1012 гПаоблачно
12:00+20ЮЗ, 5 м/с58%1012 гПаоблачносл. дождь
13:00+20ЮЗ, 5 м/с57%1012 гПаоблачно
14:00+22З, 6 м/с52%1012 гПаоблачно
15:00+21З, 6 м/с56%1012 гПаоблачно
16:00+22З, 6 м/с52%1012 гПаоблачно
17:00+22З, 4 м/с54%1012 гПаоблачно
18:00+22СЗ, 4 м/с52%1012 гПаоблачно
19:00+21СЗ, 4 м/с54%1013 гПаоблачно
20:00+21С, 4 м/с53%1013 гПас прояснениями
21:00+20С, 4 м/с56%1013 гПамалооблачно
22:00+19С, 2 м/с61%1013 гПамалооблачно
23:00+17С, 1 м/с72%1014 гПамалооблачно
27 июня
00:00+16С, 1 м/с78%1014 гПамалооблачно
01:00+15С, 2 м/с78%1015 гПамалооблачно
02:00+14СВ, 1 м/с84%1015 гПас прояснениями
03:00+14С, 2 м/с85%1015 гПас прояснениями
04:00+15С, 2 м/с83%1015 гПаоблачно
05:00+15СВ, 2 м/с80%1015 гПаоблачно
06:00+15СВ, 2 м/с79%1015 гПаоблачно
07:00+15СВ, 1 м/с82%1015 гПаоблачно
08:00+15С, 2 м/с75%1015 гПаоблачно
09:00+16СВ, 3 м/с67%1015 гПаоблачно